RYR181 EKCH-ESSA
Flight info
| Callsign | RYR181 |
|---|---|
| Flight time | 0h 49m |
| Altitude | 31000 |
| Route | KEMAX DCT RASMU DCT DETSO N873 ARS T317 ELTOK |
| Aircraft | B738/M-SDE2E3FGHIRWXY/LB1 |
Departure
| Time | 2026-05-06 06:09 |
|---|---|
| Airport | Copenhagen Kastrup Airport (EKCH) |
Arrival
| Time | 2026-05-06 06:58 |
|---|---|
| Airport | Stockholm-Arlanda Airport (ESSA) |
| Time | Latitude | Longitude | Altitude | Speed | Heading |
|---|---|---|---|---|---|
| 2026-05-06 05:47 | 55.62420 | 12.64924 | 21 ft | 0 kts | 89° |
| 2026-05-06 05:59 | 55.62420 | 12.64922 | 21 ft | 1 kts | 89° |
| 2026-05-06 05:59 | 55.62420 | 12.64897 | 21 ft | 2 kts | 89° |
| 2026-05-06 05:59 | 55.62419 | 12.64870 | 21 ft | 2 kts | 89° |
| 2026-05-06 06:00 | 55.62419 | 12.64844 | 22 ft | 2 kts | 89° |
| 2026-05-06 06:00 | 55.62420 | 12.64817 | 22 ft | 2 kts | 111° |
| 2026-05-06 06:00 | 55.62427 | 12.64794 | 22 ft | 2 kts | 136° |
| 2026-05-06 06:00 | 55.62440 | 12.64780 | 22 ft | 2 kts | 161° |
| 2026-05-06 06:01 | 55.62449 | 12.64776 | 22 ft | 1 kts | 177° |
| 2026-05-06 06:01 | 55.62455 | 12.64776 | 22 ft | 0 kts | 179° |
| 2026-05-06 06:03 | 55.62421 | 12.64778 | 22 ft | 8 kts | 178° |
| 2026-05-06 06:03 | 55.62311 | 12.64788 | 22 ft | 18 kts | 176° |
| 2026-05-06 06:04 | 55.62236 | 12.64793 | 22 ft | 9 kts | 188° |
| 2026-05-06 06:04 | 55.62177 | 12.64739 | 22 ft | 9 kts | 213° |
| 2026-05-06 06:04 | 55.62120 | 12.64672 | 22 ft | 10 kts | 214° |
| 2026-05-06 06:04 | 55.62013 | 12.64547 | 22 ft | 29 kts | 207° |
| 2026-05-06 06:05 | 55.61783 | 12.64548 | 23 ft | 28 kts | 170° |
| 2026-05-06 06:05 | 55.61602 | 12.64471 | 23 ft | 34 kts | 211° |
| 2026-05-06 06:05 | 55.61399 | 12.64249 | 23 ft | 27 kts | 212° |
| 2026-05-06 06:05 | 55.61235 | 12.64064 | 23 ft | 28 kts | 213° |
| 2026-05-06 06:06 | 55.61072 | 12.63876 | 23 ft | 28 kts | 212° |
| 2026-05-06 06:06 | 55.60961 | 12.63752 | 23 ft | 6 kts | 213° |
| 2026-05-06 06:06 | 55.60920 | 12.63704 | 23 ft | 7 kts | 214° |
| 2026-05-06 06:06 | 55.60874 | 12.63649 | 23 ft | 8 kts | 214° |
| 2026-05-06 06:07 | 55.60823 | 12.63591 | 23 ft | 8 kts | 202° |
| 2026-05-06 06:07 | 55.60770 | 12.63621 | 23 ft | 8 kts | 136° |
| 2026-05-06 06:07 | 55.60733 | 12.63696 | 23 ft | 8 kts | 130° |
| 2026-05-06 06:07 | 55.60728 | 12.63708 | 23 ft | 0 kts | 130° |
| 2026-05-06 06:08 | 55.60720 | 12.63724 | 23 ft | 2 kts | 130° |
| 2026-05-06 06:08 | 55.60695 | 12.63785 | 23 ft | 14 kts | 117° |
| 2026-05-06 06:08 | 55.60721 | 12.63929 | 24 ft | 26 kts | 40° |
| 2026-05-06 06:08 | 55.61407 | 12.64992 | 41 ft | 169 kts | 41° |
| 2026-05-06 06:09 | 55.62347 | 12.66483 | 1131 ft | 195 kts | 43° |
| 2026-05-06 06:09 | 55.63365 | 12.68050 | 2733 ft | 210 kts | 42° |
| 2026-05-06 06:09 | 55.64450 | 12.69726 | 4359 ft | 223 kts | 42° |
| 2026-05-06 06:09 | 55.65589 | 12.71518 | 5986 ft | 232 kts | 41° |
| 2026-05-06 06:10 | 55.66787 | 12.73312 | 7575 ft | 238 kts | 39° |
| 2026-05-06 06:10 | 55.68030 | 12.75129 | 9137 ft | 240 kts | 39° |
| 2026-05-06 06:10 | 55.69280 | 12.76967 | 10602 ft | 240 kts | 38° |
| 2026-05-06 06:10 | 55.70585 | 12.78902 | 11567 ft | 258 kts | 39° |
| 2026-05-06 06:11 | 55.71989 | 12.80996 | 12506 ft | 276 kts | 38° |
| 2026-05-06 06:11 | 55.73476 | 12.83220 | 13372 ft | 294 kts | 38° |
| 2026-05-06 06:11 | 55.75066 | 12.85627 | 14336 ft | 309 kts | 39° |
| 2026-05-06 06:11 | 55.76685 | 12.88152 | 15493 ft | 317 kts | 40° |
| 2026-05-06 06:12 | 55.78331 | 12.90754 | 16577 ft | 326 kts | 40° |
| 2026-05-06 06:12 | 55.80041 | 12.93463 | 17638 ft | 334 kts | 39° |
| 2026-05-06 06:12 | 55.81773 | 12.96201 | 18661 ft | 341 kts | 40° |
| 2026-05-06 06:12 | 55.83578 | 12.99049 | 19379 ft | 357 kts | 40° |
| 2026-05-06 06:13 | 55.85462 | 13.02019 | 19997 ft | 374 kts | 39° |
| 2026-05-06 06:13 | 55.87431 | 13.05125 | 20527 ft | 393 kts | 39° |
| 2026-05-06 06:13 | 55.89516 | 13.08419 | 21143 ft | 408 kts | 40° |
| 2026-05-06 06:13 | 55.91679 | 13.11843 | 21606 ft | 427 kts | 40° |
| 2026-05-06 06:14 | 55.93904 | 13.15372 | 22363 ft | 436 kts | 40° |
| 2026-05-06 06:14 | 55.96180 | 13.18993 | 23193 ft | 442 kts | 40° |
| 2026-05-06 06:14 | 55.98483 | 13.22662 | 23988 ft | 449 kts | 40° |
| 2026-05-06 06:14 | 56.00825 | 13.26400 | 24809 ft | 455 kts | 40° |
| 2026-05-06 06:15 | 56.03158 | 13.30131 | 25588 ft | 461 kts | 40° |
| 2026-05-06 06:15 | 56.05564 | 13.33988 | 26609 ft | 462 kts | 40° |
| 2026-05-06 06:15 | 56.07932 | 13.37789 | 27701 ft | 459 kts | 40° |
| 2026-05-06 06:15 | 56.10313 | 13.41442 | 28702 ft | 457 kts | 36° |
| 2026-05-06 06:16 | 56.12884 | 13.44740 | 29594 ft | 455 kts | 28° |
| 2026-05-06 06:16 | 56.15713 | 13.47340 | 30425 ft | 452 kts | 19° |
| 2026-05-06 06:16 | 56.18673 | 13.49377 | 30859 ft | 460 kts | 14° |
| 2026-05-06 06:16 | 56.21817 | 13.51194 | 30909 ft | 478 kts | 12° |
| 2026-05-06 06:17 | 56.25095 | 13.52930 | 30908 ft | 497 kts | 11° |
| 2026-05-06 06:17 | 56.28456 | 13.54662 | 30906 ft | 515 kts | 11° |
| 2026-05-06 06:17 | 56.31940 | 13.56476 | 30911 ft | 526 kts | 12° |
| 2026-05-06 06:17 | 56.35390 | 13.58326 | 30904 ft | 523 kts | 12° |
| 2026-05-06 06:18 | 56.38843 | 13.60233 | 30909 ft | 511 kts | 12° |
| 2026-05-06 06:18 | 56.42167 | 13.62108 | 30911 ft | 500 kts | 12° |
| 2026-05-06 06:18 | 56.48741 | 13.65872 | 30914 ft | 497 kts | 13° |
| 2026-05-06 06:19 | 56.55409 | 13.69698 | 30917 ft | 504 kts | 13° |
| 2026-05-06 06:19 | 56.62068 | 13.73544 | 30914 ft | 502 kts | 13° |
| 2026-05-06 06:20 | 56.68658 | 13.77751 | 30917 ft | 507 kts | 16° |
| 2026-05-06 06:20 | 56.75203 | 13.82399 | 30926 ft | 506 kts | 17° |
| 2026-05-06 06:21 | 56.81710 | 13.87117 | 30923 ft | 507 kts | 17° |
| 2026-05-06 06:21 | 56.88255 | 13.92037 | 30924 ft | 513 kts | 19° |
| 2026-05-06 06:22 | 56.91475 | 13.94847 | 30932 ft | 525 kts | 22° |
| 2026-05-06 06:22 | 56.94745 | 13.97901 | 30930 ft | 533 kts | 22° |
| 2026-05-06 06:22 | 57.01274 | 14.04272 | 30936 ft | 531 kts | 24° |
| 2026-05-06 06:23 | 57.07738 | 14.10634 | 30939 ft | 529 kts | 23° |
| 2026-05-06 06:23 | 57.14227 | 14.16978 | 30936 ft | 530 kts | 22° |
| 2026-05-06 06:24 | 57.20602 | 14.23170 | 30937 ft | 531 kts | 22° |
| 2026-05-06 06:24 | 57.27152 | 14.29518 | 30939 ft | 531 kts | 22° |
| 2026-05-06 06:25 | 57.33672 | 14.35856 | 30942 ft | 532 kts | 22° |
| 2026-05-06 06:26 | 57.43459 | 14.45425 | 30928 ft | 531 kts | 22° |
| 2026-05-06 06:26 | 57.50016 | 14.51873 | 30926 ft | 534 kts | 22° |
| 2026-05-06 06:27 | 57.56509 | 14.58289 | 30934 ft | 531 kts | 22° |
| 2026-05-06 06:27 | 57.63059 | 14.64785 | 30936 ft | 534 kts | 22° |
| 2026-05-06 06:28 | 57.69510 | 14.71205 | 30939 ft | 536 kts | 22° |
| 2026-05-06 06:28 | 57.76099 | 14.77800 | 30940 ft | 535 kts | 22° |
| 2026-05-06 06:29 | 57.82600 | 14.84331 | 30944 ft | 534 kts | 22° |
| 2026-05-06 06:29 | 57.89123 | 14.90898 | 30941 ft | 536 kts | 22° |
| 2026-05-06 06:30 | 57.95690 | 14.97537 | 30929 ft | 535 kts | 22° |
| 2026-05-06 06:30 | 58.02224 | 15.04177 | 30944 ft | 535 kts | 22° |
| 2026-05-06 06:31 | 58.08717 | 15.10798 | 30958 ft | 537 kts | 22° |
| 2026-05-06 06:31 | 58.15269 | 15.17517 | 30962 ft | 533 kts | 22° |
| 2026-05-06 06:32 | 58.21675 | 15.24107 | 30965 ft | 535 kts | 22° |
| 2026-05-06 06:32 | 58.27992 | 15.30631 | 30967 ft | 534 kts | 22° |
| 2026-05-06 06:33 | 58.34514 | 15.37393 | 30972 ft | 534 kts | 22° |
| 2026-05-06 06:33 | 58.41016 | 15.44169 | 30974 ft | 534 kts | 22° |
| 2026-05-06 06:34 | 58.47488 | 15.50944 | 30976 ft | 533 kts | 21° |
| 2026-05-06 06:34 | 58.53996 | 15.57783 | 30976 ft | 535 kts | 22° |
| 2026-05-06 06:35 | 58.60474 | 15.64618 | 30972 ft | 533 kts | 22° |
| 2026-05-06 06:35 | 58.66841 | 15.71363 | 30969 ft | 536 kts | 22° |
| 2026-05-06 06:36 | 58.73357 | 15.78291 | 30966 ft | 535 kts | 22° |
| 2026-05-06 06:36 | 58.76596 | 15.81751 | 30987 ft | 524 kts | 23° |
| 2026-05-06 06:36 | 58.79699 | 15.85093 | 30518 ft | 514 kts | 22° |
| 2026-05-06 06:36 | 58.82822 | 15.88451 | 29440 ft | 516 kts | 22° |
| 2026-05-06 06:37 | 58.85942 | 15.91803 | 28839 ft | 508 kts | 22° |
| 2026-05-06 06:37 | 58.88990 | 15.95085 | 28321 ft | 506 kts | 23° |
| 2026-05-06 06:37 | 58.92077 | 15.98408 | 27800 ft | 511 kts | 22° |
| 2026-05-06 06:37 | 58.95163 | 16.01726 | 27280 ft | 516 kts | 23° |
| 2026-05-06 06:38 | 58.98300 | 16.05109 | 26759 ft | 517 kts | 23° |
| 2026-05-06 06:38 | 59.01459 | 16.08526 | 26240 ft | 518 kts | 23° |
| 2026-05-06 06:38 | 59.04558 | 16.11894 | 25724 ft | 516 kts | 23° |
| 2026-05-06 06:38 | 59.07678 | 16.15295 | 25210 ft | 514 kts | 23° |
| 2026-05-06 06:39 | 59.10740 | 16.18644 | 24707 ft | 510 kts | 23° |
| 2026-05-06 06:39 | 59.13641 | 16.21830 | 24230 ft | 505 kts | 23° |
| 2026-05-06 06:39 | 59.16379 | 16.24845 | 23781 ft | 499 kts | 23° |
| 2026-05-06 06:39 | 59.19429 | 16.28206 | 23273 ft | 495 kts | 23° |
| 2026-05-06 06:40 | 59.22144 | 16.31199 | 22817 ft | 491 kts | 23° |
| 2026-05-06 06:40 | 59.24875 | 16.34215 | 22345 ft | 485 kts | 23° |
| 2026-05-06 06:40 | 59.27816 | 16.37467 | 21831 ft | 481 kts | 23° |
| 2026-05-06 06:40 | 59.30698 | 16.40657 | 21335 ft | 476 kts | 23° |
| 2026-05-06 06:41 | 59.33532 | 16.43799 | 20838 ft | 472 kts | 23° |
| 2026-05-06 06:41 | 59.36370 | 16.46951 | 20335 ft | 468 kts | 23° |
| 2026-05-06 06:41 | 59.39173 | 16.50071 | 19833 ft | 462 kts | 23° |
| 2026-05-06 06:41 | 59.41949 | 16.53170 | 19325 ft | 456 kts | 23° |
| 2026-05-06 06:42 | 59.44685 | 16.56231 | 18816 ft | 451 kts | 23° |
| 2026-05-06 06:42 | 59.47355 | 16.59223 | 18344 ft | 446 kts | 23° |
| 2026-05-06 06:42 | 59.50034 | 16.62224 | 17862 ft | 443 kts | 23° |
| 2026-05-06 06:42 | 59.52687 | 16.65200 | 17383 ft | 439 kts | 24° |
| 2026-05-06 06:43 | 59.55165 | 16.67985 | 16908 ft | 435 kts | 25° |
| 2026-05-06 06:43 | 59.57780 | 16.70931 | 16411 ft | 431 kts | 25° |
| 2026-05-06 06:43 | 59.59981 | 16.73417 | 15982 ft | 427 kts | 25° |
| 2026-05-06 06:43 | 59.62540 | 16.76312 | 15473 ft | 421 kts | 25° |
| 2026-05-06 06:44 | 59.65026 | 16.79133 | 14965 ft | 409 kts | 25° |
| 2026-05-06 06:44 | 59.67456 | 16.81902 | 14437 ft | 397 kts | 25° |
| 2026-05-06 06:44 | 59.69819 | 16.84594 | 13861 ft | 387 kts | 25° |
| 2026-05-06 06:44 | 59.72116 | 16.87210 | 13288 ft | 378 kts | 25° |
| 2026-05-06 06:45 | 59.74343 | 16.89749 | 12741 ft | 370 kts | 26° |
| 2026-05-06 06:45 | 59.76558 | 16.92275 | 12179 ft | 363 kts | 26° |
| 2026-05-06 06:45 | 59.78718 | 16.94744 | 11609 ft | 356 kts | 27° |
| 2026-05-06 06:45 | 59.80714 | 16.97444 | 11100 ft | 350 kts | 37° |
| 2026-05-06 06:46 | 59.82266 | 17.01012 | 10981 ft | 337 kts | 59° |
| 2026-05-06 06:46 | 59.82950 | 17.05310 | 10975 ft | 319 kts | 80° |
| 2026-05-06 06:46 | 59.83187 | 17.09585 | 10828 ft | 301 kts | 83° |
| 2026-05-06 06:46 | 59.83362 | 17.13642 | 10324 ft | 298 kts | 84° |
| 2026-05-06 06:47 | 59.83551 | 17.17736 | 9815 ft | 294 kts | 83° |
| 2026-05-06 06:47 | 59.83752 | 17.21689 | 9558 ft | 282 kts | 83° |
| 2026-05-06 06:47 | 59.83770 | 17.25517 | 9320 ft | 271 kts | 95° |
| 2026-05-06 06:47 | 59.83233 | 17.29020 | 8935 ft | 268 kts | 116° |
| 2026-05-06 06:48 | 59.82308 | 17.32213 | 8491 ft | 266 kts | 122° |
| 2026-05-06 06:48 | 59.81335 | 17.35323 | 8044 ft | 264 kts | 121° |
| 2026-05-06 06:48 | 59.80398 | 17.38442 | 7574 ft | 263 kts | 120° |
| 2026-05-06 06:48 | 59.79497 | 17.41575 | 7165 ft | 259 kts | 118° |
| 2026-05-06 06:49 | 59.78627 | 17.44662 | 6699 ft | 259 kts | 118° |
| 2026-05-06 06:49 | 59.77757 | 17.47764 | 6284 ft | 256 kts | 118° |
| 2026-05-06 06:49 | 59.76905 | 17.50796 | 5855 ft | 254 kts | 118° |
| 2026-05-06 06:49 | 59.76053 | 17.53817 | 5472 ft | 250 kts | 118° |
| 2026-05-06 06:50 | 59.75265 | 17.56819 | 5390 ft | 242 kts | 111° |
| 2026-05-06 06:50 | 59.74898 | 17.60066 | 5401 ft | 244 kts | 86° |
| 2026-05-06 06:50 | 59.75281 | 17.63310 | 5408 ft | 246 kts | 66° |
| 2026-05-06 06:50 | 59.75937 | 17.66493 | 5399 ft | 246 kts | 65° |
| 2026-05-06 06:51 | 59.76555 | 17.69526 | 5302 ft | 231 kts | 67° |
| 2026-05-06 06:51 | 59.77104 | 17.72377 | 5096 ft | 212 kts | 68° |
| 2026-05-06 06:51 | 59.77603 | 17.75043 | 4840 ft | 200 kts | 68° |
| 2026-05-06 06:51 | 59.78065 | 17.77510 | 4648 ft | 187 kts | 68° |
| 2026-05-06 06:52 | 59.78506 | 17.79854 | 4477 ft | 175 kts | 67° |
| 2026-05-06 06:52 | 59.78919 | 17.82053 | 4260 ft | 168 kts | 67° |
| 2026-05-06 06:52 | 59.79330 | 17.84240 | 3905 ft | 169 kts | 67° |
| 2026-05-06 06:52 | 59.79739 | 17.86420 | 3581 ft | 169 kts | 67° |
| 2026-05-06 06:53 | 59.80141 | 17.88577 | 3259 ft | 169 kts | 68° |
| 2026-05-06 06:53 | 59.80545 | 17.90746 | 2949 ft | 167 kts | 68° |
| 2026-05-06 06:53 | 59.80863 | 17.92954 | 2639 ft | 167 kts | 85° |
| 2026-05-06 06:53 | 59.80586 | 17.95120 | 2474 ft | 162 kts | 125° |
| 2026-05-06 06:54 | 59.79791 | 17.96649 | 2494 ft | 158 kts | 147° |
| 2026-05-06 06:54 | 59.78781 | 17.97365 | 2500 ft | 157 kts | 180° |
| 2026-05-06 06:54 | 59.77756 | 17.97000 | 2526 ft | 149 kts | 195° |
| 2026-05-06 06:54 | 59.76733 | 17.96540 | 2492 ft | 148 kts | 193° |
| 2026-05-06 06:55 | 59.75748 | 17.96073 | 2229 ft | 147 kts | 194° |
| 2026-05-06 06:55 | 59.74745 | 17.95633 | 1939 ft | 147 kts | 193° |
| 2026-05-06 06:55 | 59.73739 | 17.95231 | 1646 ft | 149 kts | 192° |
| 2026-05-06 06:55 | 59.72738 | 17.94801 | 1409 ft | 148 kts | 193° |
| 2026-05-06 06:56 | 59.71736 | 17.94375 | 1169 ft | 147 kts | 191° |
| 2026-05-06 06:56 | 59.70746 | 17.93978 | 943 ft | 145 kts | 191° |
| 2026-05-06 06:56 | 59.69791 | 17.93617 | 793 ft | 131 kts | 190° |
| 2026-05-06 06:56 | 59.68903 | 17.93304 | 598 ft | 130 kts | 191° |
| 2026-05-06 06:57 | 59.68010 | 17.92931 | 464 ft | 134 kts | 192° |
| 2026-05-06 06:57 | 59.67101 | 17.92565 | 286 ft | 133 kts | 192° |
| 2026-05-06 06:57 | 59.66202 | 17.92220 | 120 ft | 128 kts | 191° |
| 2026-05-06 06:57 | 59.65474 | 17.91952 | 106 ft | 80 kts | 191° |
| 2026-05-06 06:58 | 59.65143 | 17.91835 | 105 ft | 28 kts | 189° |
| 2026-05-06 06:58 | 59.64950 | 17.91766 | 106 ft | 28 kts | 191° |
| 2026-05-06 06:58 | 59.64758 | 17.91707 | 107 ft | 27 kts | 180° |
| 2026-05-06 06:58 | 59.64572 | 17.91767 | 109 ft | 26 kts | 165° |
| 2026-05-06 06:59 | 59.64436 | 17.91942 | 112 ft | 21 kts | 118° |
| 2026-05-06 06:59 | 59.64373 | 17.92184 | 114 ft | 15 kts | 116° |
| 2026-05-06 06:59 | 59.64380 | 17.92299 | 114 ft | 7 kts | 8° |
| 2026-05-06 06:59 | 59.64431 | 17.92284 | 113 ft | 8 kts | 348° |
| 2026-05-06 07:00 | 59.64444 | 17.92279 | 113 ft | 0 kts | 348° |
| 2026-05-06 07:00 | 59.64449 | 17.92277 | 113 ft | 0 kts | 348° |